createdAt,value
2019-02-25T00:02:06.470Z,73.10
2019-02-25T00:04:32.637Z,73.40
2019-02-25T00:06:58.765Z,73.60
2019-02-25T00:09:25.018Z,73.80
2019-02-25T00:11:51.175Z,73.90
2019-02-25T00:14:17.292Z,74.00
2019-02-25T00:16:43.433Z,73.70
2019-02-25T00:19:09.558Z,73.50
2019-02-25T00:21:35.776Z,73.00
2019-02-25T00:24:02.042Z,73.60
2019-02-25T00:26:28.170Z,73.60
2019-02-25T00:28:54.300Z,74.10
2019-02-25T00:31:20.547Z,74.20
2019-02-25T00:33:46.675Z,74.40
2019-02-25T00:36:12.823Z,73.90
2019-02-25T00:38:38.915Z,74.30
2019-02-25T00:41:05.168Z,74.50
2019-02-25T00:43:31.325Z,74.40
2019-02-25T00:45:57.774Z,74.70
2019-02-25T00:48:23.881Z,74.60
2019-02-25T00:50:50.101Z,74.60
2019-02-25T00:53:16.324Z,74.70
2019-02-25T00:55:42.473Z,74.50
2019-02-25T00:58:08.696Z,74.70
2019-02-25T01:00:34.977Z,74.50
2019-02-25T01:03:01.224Z,74.40
2019-02-25T01:05:27.429Z,74.30
2019-02-25T01:07:53.651Z,74.00
2019-02-25T01:10:20.020Z,73.90
2019-02-25T01:12:46.336Z,74.20
2019-02-25T01:15:12.865Z,75.80
2019-02-25T01:17:39.072Z,75.50
2019-02-25T01:20:07.127Z,75.10
2019-02-25T01:22:33.328Z,75.90
2019-02-25T01:25:00.547Z,80.70
2019-02-25T01:27:26.809Z,83.50
2019-02-25T01:29:53.029Z,82.70
2019-02-25T01:32:19.472Z,79.80
2019-02-25T01:34:45.713Z,79.10
2019-02-25T01:37:11.924Z,78.70
2019-02-25T01:39:38.047Z,78.20
2019-02-25T01:42:04.204Z,78.00
2019-02-25T01:44:30.459Z,77.60
2019-02-25T01:46:57.523Z,77.30
2019-02-25T01:49:23.745Z,77.30
2019-02-25T01:51:50.227Z,77.40
2019-02-25T01:54:16.651Z,77.20
2019-02-25T01:56:42.805Z,78.00
2019-02-25T01:59:08.962Z,77.60
2019-02-25T02:01:35.079Z,76.80
2019-02-25T02:04:01.203Z,76.70
2019-02-25T02:06:27.341Z,76.50
2019-02-25T02:08:53.568Z,76.50
2019-02-25T02:11:19.694Z,76.70
2019-02-25T02:13:45.848Z,77.40
2019-02-25T02:16:12.083Z,77.60
2019-02-25T02:18:38.275Z,77.00
2019-02-25T02:21:04.941Z,76.90
2019-02-25T02:23:31.073Z,76.60
2019-02-25T02:25:57.238Z,76.50
2019-02-25T02:28:23.372Z,77.20
2019-02-25T02:30:49.529Z,76.60
2019-02-25T02:33:15.762Z,76.40
2019-02-25T02:35:42.697Z,76.60
2019-02-25T02:38:08.863Z,77.00
2019-02-25T02:40:34.974Z,77.40
2019-02-25T02:43:01.128Z,78.40
2019-02-25T02:45:29.174Z,78.70
2019-02-25T02:47:57.195Z,80.20
2019-02-25T02:50:23.515Z,81.50
2019-02-25T02:52:49.751Z,80.60
2019-02-25T02:55:15.881Z,85.00
2019-02-25T02:57:42.103Z,84.60
2019-02-25T03:00:10.479Z,83.20
2019-02-25T03:02:36.567Z,83.20
2019-02-25T03:05:04.024Z,82.50
2019-02-25T03:07:30.251Z,83.50
2019-02-25T03:09:58.691Z,82.50
2019-02-25T03:12:24.335Z,82.10
2019-02-25T03:14:50.450Z,82.60
2019-02-25T03:17:16.695Z,82.30
2019-02-25T03:19:42.828Z,82.10
2019-02-25T03:22:09.831Z,81.70
2019-02-25T03:24:35.991Z,81.70
2019-02-25T03:27:02.212Z,81.40
2019-02-25T03:29:28.488Z,81.00
2019-02-25T03:31:54.697Z,80.70
2019-02-25T03:34:20.935Z,80.70
2019-02-25T03:36:47.057Z,80.50
2019-02-25T03:39:13.265Z,80.50
2019-02-25T03:41:39.388Z,80.70
2019-02-25T03:44:05.632Z,81.00
2019-02-25T03:46:31.739Z,80.80
2019-02-25T03:48:57.869Z,80.80
2019-02-25T03:51:24.876Z,80.90
2019-02-25T03:53:51.118Z,80.90
2019-02-25T03:56:17.320Z,81.00
2019-02-25T03:58:43.864Z,81.30
2019-02-25T04:01:10.108Z,81.20
2019-02-25T04:03:36.423Z,81.40
2019-02-25T04:06:02.643Z,81.80
2019-02-25T04:08:28.896Z,82.80
2019-02-25T04:10:55.127Z,82.20
2019-02-25T04:13:21.286Z,82.00
2019-02-25T04:15:47.479Z,82.60
2019-02-25T04:18:13.653Z,82.00
2019-02-25T04:20:39.872Z,82.80
2019-02-25T04:23:06.020Z,83.10
2019-02-25T04:25:32.175Z,83.70
2019-02-25T04:27:58.588Z,83.80
2019-02-25T04:30:24.731Z,84.20
2019-02-25T04:32:50.941Z,83.90
2019-02-25T04:35:17.102Z,83.70
2019-02-25T04:37:43.339Z,83.40
2019-02-25T04:40:11.498Z,82.90
2019-02-25T04:42:37.644Z,83.40
2019-02-25T04:45:05.717Z,83.50
2019-02-25T04:47:31.819Z,83.70
2019-02-25T04:49:57.927Z,83.10
2019-02-25T04:52:24.089Z,82.60
2019-02-25T04:54:50.232Z,82.90
2019-02-25T04:57:16.346Z,83.90
2019-02-25T04:59:42.510Z,85.20
2019-02-25T05:02:08.707Z,84.30
2019-02-25T05:04:34.856Z,84.50
2019-02-25T05:07:00.976Z,84.10
2019-02-25T05:09:27.183Z,84.60
2019-02-25T05:11:53.314Z,84.30
2019-02-25T05:14:19.434Z,84.60
2019-02-25T05:16:45.560Z,84.60
2019-02-25T05:19:11.680Z,84.70
2019-02-25T05:21:37.919Z,84.60
2019-02-25T05:24:04.111Z,84.60
2019-02-25T05:26:30.308Z,84.30
2019-02-25T05:28:56.435Z,84.30
2019-02-25T05:31:22.590Z,84.20
2019-02-25T05:33:48.804Z,83.90
2019-02-25T05:36:14.955Z,83.90
2019-02-25T05:38:41.075Z,83.90
2019-02-25T05:41:07.231Z,83.70
2019-02-25T05:43:33.360Z,83.90
2019-02-25T05:45:59.481Z,84.00
2019-02-25T05:48:25.627Z,83.40
2019-02-25T05:50:51.758Z,83.80
2019-02-25T05:53:17.856Z,83.90
2019-02-25T05:55:43.985Z,84.10
2019-02-25T05:58:10.252Z,84.10
2019-02-25T06:00:36.446Z,83.50
2019-02-25T06:03:02.773Z,84.30
2019-02-25T06:05:29.027Z,83.90
2019-02-25T06:07:55.243Z,84.30
2019-02-25T06:10:21.346Z,85.40
2019-02-25T06:12:47.484Z,85.10
2019-02-25T06:15:14.516Z,84.80
2019-02-25T06:17:40.744Z,84.60
2019-02-25T06:20:09.685Z,85.10
2019-02-25T06:22:36.171Z,85.80
2019-02-25T06:25:03.098Z,86.50
2019-02-25T06:27:30.936Z,88.10
2019-02-25T06:29:57.252Z,87.80
2019-02-25T06:32:23.395Z,90.40
2019-02-25T06:34:49.529Z,88.80
2019-02-25T06:37:15.694Z,88.90
2019-02-25T06:39:41.828Z,88.40
2019-02-25T06:42:08.038Z,88.10
2019-02-25T06:44:34.180Z,88.00
2019-02-25T06:47:00.334Z,87.80
2019-02-25T06:49:26.485Z,87.60
2019-02-25T06:51:52.698Z,88.60
2019-02-25T06:54:18.816Z,88.30
2019-02-25T06:56:45.004Z,87.50
2019-02-25T06:59:11.077Z,87.50
2019-02-25T07:01:37.232Z,87.90
2019-02-25T07:04:05.363Z,88.10
2019-02-25T07:06:33.452Z,88.10
2019-02-25T07:09:01.475Z,87.90
2019-02-25T07:11:35.511Z,87.70
2019-02-25T07:14:09.378Z,88.10
2019-02-25T07:19:25.695Z,90.20
2019-02-25T07:21:53.741Z,89.30
2019-02-25T07:24:24.628Z,89.20
2019-02-25T07:26:52.698Z,90.00
2019-02-25T07:29:23.629Z,90.40
2019-02-25T07:31:54.523Z,91.00
2019-02-25T07:34:22.548Z,92.40
2019-02-25T07:36:50.570Z,92.20
2019-02-25T07:39:21.396Z,90.90
2019-02-25T07:41:58.599Z,91.20
2019-02-25T07:44:38.515Z,91.30
2019-02-25T07:47:23.418Z,91.40
2019-02-25T07:50:03.585Z,91.20
2019-02-25T07:52:40.454Z,90.50
2019-02-25T07:55:25.985Z,90.20
2019-02-25T07:58:16.884Z,89.50
2019-02-25T08:00:44.910Z,88.60
2019-02-25T08:03:18.784Z,88.20
2019-02-25T08:06:03.484Z,87.60
2019-02-25T08:08:31.504Z,88.10
2019-02-25T08:11:14.504Z,87.30
2019-02-25T08:13:42.540Z,87.00
2019-02-25T08:16:22.740Z,86.70
2019-02-25T08:18:59.933Z,86.40
2019-02-25T08:21:27.972Z,86.00
2019-02-25T08:24:07.848Z,86.20
2019-02-25T08:26:52.424Z,85.80
2019-02-25T08:29:29.147Z,85.40
2019-02-25T08:32:06.187Z,85.20
2019-02-25T08:34:36.855Z,85.00
2019-02-25T08:37:24.398Z,85.00
2019-02-25T08:39:57.296Z,85.00
2019-02-25T08:42:25.216Z,84.80
2019-02-25T08:44:53.266Z,84.80
2019-02-25T08:47:30.002Z,84.90
2019-02-25T08:49:56.249Z,85.30
2019-02-25T08:52:22.475Z,85.00
2019-02-25T08:54:48.709Z,85.80
2019-02-25T08:57:14.833Z,84.40
2019-02-25T08:59:40.989Z,84.20
2019-02-25T09:02:07.144Z,84.00
2019-02-25T09:04:33.240Z,82.30
2019-02-25T09:06:59.379Z,81.70
2019-02-25T09:09:25.497Z,82.60
2019-02-25T09:11:51.735Z,83.60
2019-02-25T09:14:17.966Z,84.00
2019-02-25T09:16:44.075Z,83.30
2019-02-25T09:19:10.295Z,82.40
2019-02-25T09:21:36.466Z,82.20
2019-02-25T09:24:02.564Z,83.10
2019-02-25T09:26:28.724Z,83.10
2019-02-25T09:28:54.842Z,82.30
2019-02-25T09:31:20.969Z,82.00
2019-02-25T09:33:47.123Z,83.40
2019-02-25T09:36:13.233Z,83.10
2019-02-25T09:38:39.469Z,83.10
2019-02-25T09:41:05.715Z,82.90
2019-02-25T09:43:31.946Z,82.80
2019-02-25T09:45:58.105Z,82.80
2019-02-25T09:48:24.211Z,82.60
2019-02-25T09:50:50.438Z,82.60
2019-02-25T09:53:16.602Z,82.90
2019-02-25T09:55:42.716Z,82.80
2019-02-25T09:58:08.834Z,82.40
2019-02-25T10:00:35.073Z,82.60
2019-02-25T10:03:01.176Z,82.10
2019-02-25T10:05:27.291Z,82.00
2019-02-25T10:07:53.464Z,81.90
2019-02-25T10:10:19.720Z,80.50
2019-02-25T10:12:45.881Z,80.20
2019-02-25T10:15:13.871Z,81.10
2019-02-25T10:17:40.008Z,81.30
2019-02-25T10:20:07.226Z,81.00
2019-02-25T10:22:33.352Z,79.90
2019-02-25T10:24:59.578Z,80.00
2019-02-25T10:27:25.806Z,80.60
2019-02-25T10:29:51.924Z,78.70
2019-02-25T10:32:18.150Z,79.40
2019-02-25T10:34:44.270Z,79.50
2019-02-25T10:37:11.071Z,79.30
2019-02-25T10:39:38.429Z,77.90
2019-02-25T10:42:04.535Z,75.50
2019-02-25T10:44:31.894Z,76.20
2019-02-25T10:46:58.630Z,76.50
2019-02-25T10:49:26.665Z,77.10
2019-02-25T10:51:52.696Z,78.00
2019-02-25T10:54:20.775Z,75.90
2019-02-25T10:56:49.399Z,75.50
2019-02-25T10:59:15.370Z,77.00
2019-02-25T11:01:43.294Z,77.00
2019-02-25T11:04:09.524Z,76.90
2019-02-25T11:06:37.582Z,75.00
2019-02-25T11:09:11.057Z,75.40
2019-02-25T11:11:39.983Z,76.30
2019-02-25T11:14:07.267Z,76.00
2019-02-25T11:16:34.023Z,73.80
2019-02-25T11:19:00.900Z,73.10
2019-02-25T11:21:27.161Z,74.00
2019-02-25T11:23:53.430Z,75.00
2019-02-25T11:26:19.781Z,75.10
2019-02-25T11:28:45.987Z,74.80
2019-02-25T11:31:12.265Z,74.00
2019-02-25T11:33:38.385Z,73.30
2019-02-25T11:36:04.497Z,73.90
2019-02-25T11:38:34.295Z,71.20
2019-02-25T11:40:59.823Z,67.90
2019-02-25T11:43:26.811Z,69.20
2019-02-25T11:45:52.969Z,72.50
2019-02-25T11:48:19.092Z,73.00
2019-02-25T11:50:45.233Z,73.30
2019-02-25T11:53:11.389Z,71.60
2019-02-25T11:55:37.650Z,72.10
2019-02-25T11:58:03.886Z,70.80
2019-02-25T12:00:30.091Z,71.70
2019-02-25T12:02:56.237Z,71.00
2019-02-25T12:05:22.471Z,70.80
2019-02-25T12:07:48.616Z,73.00
2019-02-25T12:10:15.440Z,73.10
2019-02-25T12:12:41.656Z,72.80
2019-02-25T12:15:15.491Z,70.30
2019-02-25T12:17:41.612Z,70.70
2019-02-25T12:20:09.056Z,68.00
2019-02-25T12:22:35.276Z,68.20
2019-02-25T12:25:01.544Z,67.10
2019-02-25T12:27:27.708Z,67.60
2019-02-25T12:29:53.923Z,66.50
2019-02-25T12:32:20.041Z,67.10
2019-02-25T12:34:46.194Z,69.00
2019-02-25T12:37:12.396Z,67.10
2019-02-25T12:39:38.503Z,69.00
2019-02-25T12:42:04.761Z,67.10
2019-02-25T12:44:30.924Z,67.60
2019-02-25T12:46:57.037Z,66.70
2019-02-25T12:49:23.173Z,65.90
2019-02-25T12:51:49.308Z,67.60
2019-02-25T12:54:15.419Z,66.50
2019-02-25T12:56:41.575Z,66.40
2019-02-25T12:59:07.675Z,65.50
2019-02-25T13:01:33.892Z,66.30
2019-02-25T13:04:00.126Z,67.80
2019-02-25T13:06:26.235Z,65.70
2019-02-25T13:08:52.390Z,66.30
2019-02-25T13:11:18.503Z,67.10
2019-02-25T13:13:44.609Z,64.90
2019-02-25T13:16:10.759Z,64.70
2019-02-25T13:18:36.897Z,65.60
2019-02-25T13:21:03.139Z,63.10
2019-02-25T13:23:29.270Z,64.30
2019-02-25T13:25:55.391Z,64.00
2019-02-25T13:28:23.252Z,63.60
2019-02-25T13:30:49.587Z,62.70
2019-02-25T13:33:15.838Z,63.80
2019-02-25T13:35:42.045Z,63.60
2019-02-25T13:38:08.321Z,62.10
2019-02-25T13:40:34.439Z,62.50
2019-02-25T13:43:00.673Z,64.10
2019-02-25T13:45:26.912Z,62.70
2019-02-25T13:47:53.131Z,63.50
2019-02-25T13:50:19.241Z,63.80
2019-02-25T13:52:48.274Z,64.50
2019-02-25T13:55:14.516Z,64.10
2019-02-25T13:57:40.757Z,62.70
2019-02-25T14:00:12.020Z,62.00
2019-02-25T14:02:38.257Z,59.50
2019-02-25T14:05:04.461Z,60.10
2019-02-25T14:07:30.606Z,60.00
2019-02-25T14:09:56.912Z,59.00
2019-02-25T14:12:23.138Z,56.60
2019-02-25T14:14:49.482Z,55.40
2019-02-25T14:17:15.595Z,56.90
2019-02-25T14:19:41.699Z,60.20
2019-02-25T14:22:08.076Z,55.60
2019-02-25T14:24:34.198Z,57.40
2019-02-25T14:27:00.344Z,53.50
2019-02-25T14:29:26.587Z,54.80
2019-02-25T14:31:52.804Z,53.00
2019-02-25T14:34:19.001Z,55.80
2019-02-25T14:36:46.362Z,53.90
2019-02-25T14:39:17.119Z,54.10
2019-02-25T14:41:43.240Z,50.10
2019-02-25T14:44:09.368Z,54.30
2019-02-25T14:46:35.551Z,54.80
2019-02-25T14:49:01.623Z,50.50
2019-02-25T14:51:27.743Z,49.10
2019-02-25T14:53:54.893Z,49.80
2019-02-25T14:56:21.203Z,46.70
2019-02-25T14:58:47.818Z,46.20
2019-02-25T15:01:14.064Z,45.80
2019-02-25T15:03:40.188Z,48.10
2019-02-25T15:06:06.425Z,46.50
2019-02-25T15:08:32.546Z,48.80
2019-02-25T15:11:01.888Z,45.20
2019-02-25T15:13:28.127Z,45.20
2019-02-25T15:15:54.624Z,44.90
2019-02-25T15:18:22.181Z,44.60
2019-02-25T15:20:49.025Z,44.90
2019-02-25T15:23:17.206Z,45.10
2019-02-25T15:25:44.885Z,44.00
2019-02-25T15:28:11.881Z,45.50
2019-02-25T15:30:39.231Z,43.80
2019-02-25T15:33:06.076Z,44.10
2019-02-25T15:35:34.574Z,44.90
2019-02-25T15:38:00.644Z,44.50
2019-02-25T15:40:27.406Z,46.00
2019-02-25T15:43:01.602Z,46.50
2019-02-25T15:45:28.821Z,45.40
2019-02-25T15:47:57.684Z,44.90
2019-02-25T15:50:24.701Z,45.70
2019-02-25T15:52:51.045Z,45.90
2019-02-25T15:55:19.002Z,46.30
2019-02-25T15:57:45.299Z,45.70
2019-02-25T16:00:13.837Z,45.50
2019-02-25T16:02:40.044Z,46.50
2019-02-25T16:05:08.328Z,46.30
2019-02-25T16:07:37.372Z,46.50
2019-02-25T16:10:07.516Z,45.90
2019-02-25T16:12:35.697Z,46.10
2019-02-25T16:15:01.657Z,46.70
2019-02-25T16:17:27.975Z,46.40
2019-02-25T16:19:54.555Z,46.80
2019-02-25T16:22:20.780Z,46.90
2019-02-25T16:24:46.926Z,46.50
2019-02-25T16:27:13.043Z,47.10
2019-02-25T16:29:39.191Z,47.10
2019-02-25T16:32:05.447Z,47.40
2019-02-25T16:34:32.001Z,47.00
2019-02-25T16:37:00.474Z,47.20
2019-02-25T16:39:27.483Z,47.70
2019-02-25T16:41:53.598Z,48.00
2019-02-25T16:44:19.723Z,47.90
2019-02-25T16:46:46.796Z,48.20
2019-02-25T16:49:13.898Z,48.10
2019-02-25T16:51:39.987Z,48.60
2019-02-25T16:54:09.231Z,48.60
2019-02-25T16:56:34.171Z,49.20
2019-02-25T16:59:00.291Z,49.70
2019-02-25T17:01:29.632Z,49.90
2019-02-25T17:03:54.668Z,50.10
2019-02-25T17:06:21.019Z,50.50
2019-02-25T17:08:48.768Z,50.80
2019-02-25T17:11:15.778Z,51.20
2019-02-25T17:13:43.313Z,51.60
2019-02-25T17:16:17.843Z,51.80
2019-02-25T17:18:37.654Z,51.80
2019-02-25T17:21:05.151Z,51.90
2019-02-25T17:23:32.286Z,52.20
2019-02-25T17:26:02.029Z,52.40
2019-02-25T17:28:27.657Z,52.90
2019-02-25T17:30:53.954Z,53.20
2019-02-25T17:33:20.181Z,53.60
2019-02-25T17:35:47.595Z,54.00
2019-02-25T17:38:14.486Z,54.40
2019-02-25T17:40:40.721Z,54.70
2019-02-25T17:43:06.951Z,55.10
2019-02-25T17:45:36.259Z,55.50
2019-02-25T17:48:03.151Z,56.00
2019-02-25T17:50:30.248Z,56.30
2019-02-25T17:52:58.664Z,56.40
2019-02-25T17:55:27.282Z,57.00
2019-02-25T17:57:54.777Z,58.30
2019-02-25T18:00:27.576Z,58.90
2019-02-25T18:02:55.059Z,59.10
2019-02-25T18:05:21.852Z,59.90
2019-02-25T18:07:48.675Z,59.60
2019-02-25T18:10:15.136Z,59.70
2019-02-25T18:12:41.547Z,59.80
2019-02-25T18:15:13.245Z,60.10
2019-02-25T18:17:42.472Z,61.20
2019-02-25T18:20:09.035Z,61.10
2019-02-25T18:22:35.476Z,61.50
2019-02-25T18:25:04.232Z,62.00
2019-02-25T18:27:29.657Z,62.80
2019-02-25T18:29:57.391Z,64.00
2019-02-25T18:32:24.026Z,64.10
2019-02-25T18:34:51.763Z,65.00
2019-02-25T18:37:18.182Z,65.30
2019-02-25T18:39:45.711Z,65.50
2019-02-25T18:42:13.773Z,66.10
2019-02-25T18:44:40.492Z,66.50
2019-02-25T18:47:06.653Z,66.70
2019-02-25T18:49:34.786Z,66.90
2019-02-25T18:52:00.669Z,67.40
2019-02-25T18:54:26.819Z,68.40
2019-02-25T18:56:53.034Z,68.50
2019-02-25T18:59:20.293Z,69.20
2019-02-25T19:01:47.616Z,69.20
2019-02-25T19:04:15.490Z,69.70
2019-02-25T19:06:43.574Z,70.30
2019-02-25T19:09:14.132Z,71.40
2019-02-25T19:11:40.441Z,71.30
2019-02-25T19:14:08.227Z,72.10
2019-02-25T19:16:36.021Z,72.40
2019-02-25T19:19:04.001Z,73.10
2019-02-25T19:21:31.948Z,73.20
2019-02-25T19:23:58.393Z,73.30
2019-02-25T19:26:24.516Z,73.70
2019-02-25T19:28:52.489Z,74.10
2019-02-25T19:31:18.707Z,73.80
2019-02-25T19:33:44.964Z,73.70
2019-02-25T19:36:11.300Z,74.00
2019-02-25T19:38:41.287Z,74.30
2019-02-25T19:41:05.532Z,74.60
2019-02-25T19:44:58.048Z,74.40
2019-02-25T19:47:24.189Z,74.60
2019-02-25T19:49:50.467Z,74.10
2019-02-25T19:52:17.056Z,75.10
2019-02-25T19:54:45.650Z,75.40
2019-02-25T19:57:14.152Z,75.70
2019-02-25T19:59:39.969Z,76.40
2019-02-25T20:02:06.373Z,75.80
2019-02-25T20:04:35.553Z,76.40
2019-02-25T20:07:00.921Z,76.10
2019-02-25T20:09:27.547Z,76.50
2019-02-25T20:11:53.811Z,78.60
2019-02-25T20:14:20.115Z,78.10
2019-02-25T20:16:46.445Z,78.20
2019-02-25T20:19:13.563Z,78.60
2019-02-25T20:21:39.842Z,78.90
2019-02-25T20:24:07.756Z,78.50
2019-02-25T20:26:34.567Z,79.00
2019-02-25T20:29:01.982Z,81.80
2019-02-25T20:31:29.106Z,81.20
2019-02-25T20:33:57.285Z,81.10
2019-02-25T20:36:24.208Z,83.50
2019-02-25T20:38:51.528Z,81.90
2019-02-25T20:41:19.912Z,82.10
2019-02-25T20:43:47.296Z,83.00
2019-02-25T20:46:15.145Z,82.40
2019-02-25T20:48:44.486Z,81.90
2019-02-25T20:51:11.952Z,82.10
2019-02-25T20:53:38.546Z,82.10
2019-02-25T20:56:04.911Z,81.60
2019-02-25T20:58:31.204Z,80.90
2019-02-25T21:00:57.527Z,80.70
2019-02-25T21:03:25.409Z,80.20
2019-02-25T21:05:52.076Z,80.10
2019-02-25T21:08:19.160Z,79.80
2019-02-25T21:10:46.385Z,79.80
2019-02-25T21:13:12.660Z,79.80
2019-02-25T21:15:40.662Z,79.50
2019-02-25T21:18:07.824Z,79.50
2019-02-25T21:20:34.263Z,79.60
2019-02-25T21:23:03.523Z,80.20
2019-02-25T21:25:29.054Z,80.60
2019-02-25T21:27:59.263Z,82.30
2019-02-25T21:30:24.153Z,83.00
2019-02-25T21:32:51.968Z,82.20
2019-02-25T21:35:19.307Z,82.20
2019-02-25T21:37:47.866Z,82.90
2019-02-25T21:40:20.046Z,83.20
2019-02-25T21:42:48.812Z,83.10
2019-02-25T21:45:18.006Z,83.80
2019-02-25T21:47:43.369Z,84.40
2019-02-25T21:50:12.004Z,83.90
2019-02-25T21:52:38.985Z,83.80
2019-02-25T21:55:09.327Z,83.80
2019-02-25T21:57:37.640Z,83.70
2019-02-25T22:00:16.300Z,83.30
2019-02-25T22:02:44.028Z,83.00
2019-02-25T22:05:12.260Z,83.10
2019-02-25T22:07:39.103Z,83.10
2019-02-25T22:10:15.253Z,83.30
2019-02-25T22:12:43.913Z,84.10
2019-02-25T22:15:13.052Z,83.50
2019-02-25T22:17:43.215Z,83.50
2019-02-25T22:20:12.169Z,83.90
2019-02-25T22:22:39.614Z,83.50
2019-02-25T22:25:11.152Z,83.60
2019-02-25T22:27:38.979Z,83.60
2019-02-25T22:30:09.156Z,83.80
2019-02-25T22:32:37.942Z,83.50
2019-02-25T22:35:07.596Z,83.70
2019-02-25T22:37:34.473Z,83.80
2019-02-25T22:40:00.771Z,83.80
2019-02-25T22:42:28.990Z,83.80
2019-02-25T22:44:56.136Z,83.60
2019-02-25T22:47:23.086Z,83.60
2019-02-25T22:49:49.510Z,83.70
2019-02-25T22:52:15.867Z,83.60
2019-02-25T22:54:43.552Z,83.90
2019-02-25T22:57:10.220Z,83.90
2019-02-25T22:59:36.611Z,83.90
2019-02-25T23:02:03.560Z,84.20
2019-02-25T23:04:29.906Z,84.10
2019-02-25T23:06:56.252Z,84.30
2019-02-25T23:09:23.469Z,84.20
2019-02-25T23:11:53.023Z,85.10
2019-02-25T23:14:18.979Z,86.00
2019-02-25T23:16:45.785Z,85.50
2019-02-25T23:19:13.663Z,86.10
2019-02-25T23:21:41.505Z,86.60
2019-02-25T23:24:07.772Z,85.70
2019-02-25T23:26:34.067Z,86.00
2019-02-25T23:29:00.336Z,86.30
2019-02-25T23:31:29.762Z,88.30
2019-02-25T23:33:54.870Z,87.70
2019-02-25T23:36:21.801Z,87.70
2019-02-25T23:38:50.657Z,87.60
2019-02-25T23:41:17.308Z,87.00
2019-02-25T23:43:44.514Z,86.90
2019-02-25T23:46:11.646Z,86.70
2019-02-25T23:48:39.155Z,86.40
2019-02-25T23:51:06.287Z,86.30
2019-02-25T23:53:33.380Z,86.20
2019-02-25T23:56:00.636Z,86.40
2019-02-25T23:58:27.030Z,86.50
